createdAt,value
2023-01-15T00:02:50.897Z,94810.13
2023-01-15T00:05:55.013Z,94810.38
2023-01-15T00:08:57.368Z,94805.31
2023-01-15T00:12:00.738Z,94806.09
2023-01-15T00:15:05.387Z,94800.31
2023-01-15T00:18:07.180Z,94802.16
2023-01-15T00:21:12.731Z,94796.81
2023-01-15T00:24:15.541Z,94788.09
2023-01-15T00:27:18.896Z,94790.47
2023-01-15T00:30:21.052Z,94788.50
2023-01-15T00:33:25.920Z,94780.66
2023-01-15T00:36:27.730Z,94770.00
2023-01-15T00:39:29.595Z,94760.34
2023-01-15T00:42:35.687Z,94743.22
2023-01-15T00:45:37.933Z,94745.66
2023-01-15T00:48:39.953Z,94750.19
2023-01-15T00:51:41.959Z,94744.22
2023-01-15T00:54:43.971Z,94747.63
2023-01-15T00:57:47.475Z,94743.34
2023-01-15T01:00:54.790Z,94737.66
2023-01-15T01:03:56.619Z,94744.06
2023-01-15T01:06:58.463Z,94747.03
2023-01-15T01:10:00.502Z,94733.78
2023-01-15T01:13:03.758Z,94727.38
2023-01-15T01:16:21.231Z,94734.28
2023-01-15T01:19:24.705Z,94744.19
2023-01-15T01:22:26.700Z,94734.88
2023-01-15T01:25:30.581Z,94732.06
2023-01-15T01:28:33.994Z,94729.81
2023-01-15T01:31:35.870Z,94726.00
2023-01-15T01:34:40.209Z,94724.34
2023-01-15T01:37:42.476Z,94717.88
2023-01-15T01:40:46.846Z,94715.69
2023-01-15T01:43:58.999Z,94713.88
2023-01-15T01:47:01.628Z,94709.56
2023-01-15T01:50:09.527Z,94709.59
2023-01-15T01:53:14.412Z,94704.03
2023-01-15T01:56:16.986Z,94697.09
2023-01-15T01:59:23.447Z,94696.84
2023-01-15T02:02:25.996Z,94679.16
2023-01-15T02:05:31.552Z,94676.13
2023-01-15T02:08:35.722Z,94678.56
2023-01-15T02:11:37.887Z,94682.56
2023-01-15T02:14:49.059Z,94666.09
2023-01-15T02:18:00.731Z,94658.28
2023-01-15T02:21:10.231Z,94652.91
2023-01-15T02:24:23.897Z,94650.66
2023-01-15T02:27:28.559Z,94648.06
2023-01-15T02:30:34.311Z,94630.16
2023-01-15T02:33:40.763Z,94629.41
2023-01-15T02:36:46.992Z,94634.72
2023-01-15T02:39:52.567Z,94633.22
2023-01-15T02:42:59.207Z,94635.19
2023-01-15T02:46:06.198Z,94624.53
2023-01-15T02:49:12.860Z,94635.28
2023-01-15T02:52:19.180Z,94631.84
2023-01-15T02:55:24.790Z,94629.16
2023-01-15T02:58:32.529Z,94626.97
2023-01-15T03:01:44.353Z,94630.38
2023-01-15T03:04:52.972Z,94618.09
2023-01-15T03:07:59.919Z,94625.81
2023-01-15T03:11:08.031Z,94637.00
2023-01-15T03:14:21.045Z,94623.13
2023-01-15T03:17:29.122Z,94631.94
2023-01-15T03:20:33.128Z,94638.47
2023-01-15T03:23:39.761Z,94642.72
2023-01-15T03:26:44.193Z,94651.13
2023-01-15T03:29:50.582Z,94640.31
2023-01-15T03:32:54.599Z,94651.72
2023-01-15T03:36:01.220Z,94655.94
2023-01-15T03:39:03.824Z,94646.66
2023-01-15T03:42:18.665Z,94651.63
2023-01-15T03:45:27.768Z,94663.59
2023-01-15T03:48:35.256Z,94654.81
2023-01-15T03:51:46.888Z,94624.00
2023-01-15T03:54:59.703Z,94620.47
2023-01-15T03:58:08.909Z,94609.78
2023-01-15T04:01:17.515Z,94592.97
2023-01-15T04:04:20.288Z,94575.88
2023-01-15T04:07:22.631Z,94561.81
2023-01-15T04:10:24.654Z,94545.44
2023-01-15T04:13:31.366Z,94534.25
2023-01-15T04:16:40.463Z,94535.03
2023-01-15T04:19:42.499Z,94539.31
2023-01-15T04:22:44.369Z,94533.50
2023-01-15T04:25:46.458Z,94529.31
2023-01-15T04:28:48.753Z,94515.13
2023-01-15T04:31:51.923Z,94507.19
2023-01-15T04:34:54.329Z,94508.00
2023-01-15T04:37:56.415Z,94505.66
2023-01-15T04:41:03.535Z,94507.22
2023-01-15T04:44:07.865Z,94503.03
2023-01-15T04:47:11.262Z,94491.19
2023-01-15T04:50:13.015Z,94489.75
2023-01-15T04:53:15.173Z,94478.94
2023-01-15T04:56:17.565Z,94490.00
2023-01-15T04:59:21.804Z,94464.00
2023-01-15T05:02:25.293Z,94485.44
2023-01-15T05:05:27.222Z,94479.69
2023-01-15T05:08:29.151Z,94465.06
2023-01-15T05:11:31.768Z,94450.06
2023-01-15T05:14:33.758Z,94463.50
2023-01-15T05:17:36.881Z,94459.69
2023-01-15T05:20:39.282Z,94442.94
2023-01-15T05:23:41.357Z,94430.34
2023-01-15T05:26:44.204Z,94432.31
2023-01-15T05:29:48.337Z,94420.84
2023-01-15T05:32:53.750Z,94406.50
2023-01-15T05:35:58.034Z,94407.72
2023-01-15T05:39:01.065Z,94393.91
2023-01-15T05:42:02.878Z,94388.22
2023-01-15T05:45:05.205Z,94403.53
2023-01-15T05:48:10.698Z,94405.94
2023-01-15T05:51:12.678Z,94395.97
2023-01-15T05:54:16.350Z,94394.88
2023-01-15T05:57:19.023Z,94404.06
2023-01-15T06:00:21.956Z,94404.06
2023-01-15T06:03:27.552Z,94383.78
2023-01-15T06:06:31.174Z,94387.97
2023-01-15T06:09:32.956Z,94386.84
2023-01-15T06:12:34.738Z,94382.63
2023-01-15T06:15:37.084Z,94371.91
2023-01-15T06:18:41.021Z,94369.59
2023-01-15T06:21:43.528Z,94377.59
2023-01-15T06:24:45.582Z,94364.69
2023-01-15T06:27:47.820Z,94360.91
2023-01-15T06:30:50.513Z,94344.50
2023-01-15T06:33:53.959Z,94347.16
2023-01-15T06:36:56.224Z,94341.47
2023-01-15T06:40:00.808Z,94346.81
2023-01-15T06:43:02.874Z,94343.78
2023-01-15T06:46:05.026Z,94350.28
2023-01-15T06:49:08.181Z,94355.22
2023-01-15T06:52:09.948Z,94356.31
2023-01-15T06:55:12.849Z,94362.84
2023-01-15T06:58:14.679Z,94361.25
2023-01-15T07:01:16.617Z,94363.22
2023-01-15T07:04:21.971Z,94360.16
2023-01-15T07:07:27.365Z,94372.44
2023-01-15T07:10:29.159Z,94365.56
2023-01-15T07:13:31.030Z,94374.22
2023-01-15T07:16:33.270Z,94370.81
2023-01-15T07:19:39.564Z,94381.50
2023-01-15T07:22:41.581Z,94371.53
2023-01-15T07:25:43.394Z,94384.94
2023-01-15T07:28:45.418Z,94383.81
2023-01-15T07:31:50.020Z,94374.59
2023-01-15T07:34:55.707Z,94384.56
2023-01-15T07:38:00.118Z,94383.44
2023-01-15T07:41:01.940Z,94380.31
2023-01-15T07:44:07.638Z,94383.78
2023-01-15T07:47:20.486Z,94376.19
2023-01-15T07:50:27.179Z,94358.31
2023-01-15T07:53:32.047Z,94367.47
2023-01-15T07:56:33.995Z,94361.03
2023-01-15T07:59:36.970Z,94362.16
2023-01-15T08:02:40.186Z,94361.84
2023-01-15T08:05:43.579Z,94367.19
2023-01-15T08:08:46.391Z,94361.06
2023-01-15T08:11:48.379Z,94369.13
2023-01-15T08:14:50.701Z,94368.38
2023-01-15T08:17:53.013Z,94369.22
2023-01-15T08:20:56.209Z,94365.41
2023-01-15T08:23:58.028Z,94363.53
2023-01-15T08:27:00.130Z,94360.13
2023-01-15T08:30:03.112Z,94361.66
2023-01-15T08:33:07.749Z,94358.59
2023-01-15T08:36:11.170Z,94363.22
2023-01-15T08:39:14.286Z,94375.47
2023-01-15T08:42:18.678Z,94373.91
2023-01-15T08:45:22.887Z,94381.16
2023-01-15T08:48:25.395Z,94369.72
2023-01-15T08:51:30.016Z,94359.81
2023-01-15T08:54:32.171Z,94351.81
2023-01-15T08:57:34.244Z,94357.56
2023-01-15T09:00:38.412Z,94349.91
2023-01-15T09:03:49.044Z,94350.31
2023-01-15T09:06:53.999Z,94351.47
2023-01-15T09:09:55.772Z,94347.31
2023-01-15T09:12:59.100Z,94354.56
2023-01-15T09:16:01.694Z,94349.59
2023-01-15T09:19:04.257Z,94354.22
2023-01-15T09:22:10.367Z,94363.38
2023-01-15T09:25:13.633Z,94370.66
2023-01-15T09:28:15.644Z,94363.41
2023-01-15T09:31:17.713Z,94357.31
2023-01-15T09:34:24.137Z,94356.53
2023-01-15T09:37:29.433Z,94362.31
2023-01-15T09:40:45.222Z,94348.19
2023-01-15T09:43:56.934Z,94341.31
2023-01-15T09:47:11.355Z,94331.34
2023-01-15T09:50:25.412Z,94330.59
2023-01-15T09:53:46.816Z,94335.16
2023-01-15T09:56:53.043Z,94320.28
2023-01-15T09:59:56.489Z,94306.16
2023-01-15T10:03:06.865Z,94300.81
2023-01-15T10:06:17.691Z,94293.94
2023-01-15T10:09:30.118Z,94291.66
2023-01-15T10:12:36.303Z,94289.78
2023-01-15T10:15:44.245Z,94289.38
2023-01-15T10:18:48.981Z,94279.44
2023-01-15T10:21:58.345Z,94279.44
2023-01-15T10:25:05.713Z,94286.31
2023-01-15T10:28:19.626Z,94287.50
2023-01-15T10:31:31.326Z,94287.13
2023-01-15T10:35:07.680Z,94280.22
2023-01-15T10:41:57.915Z,94264.53
2023-01-15T10:45:08.211Z,94272.22
2023-01-15T10:48:14.629Z,94271.09
2023-01-15T10:51:21.138Z,94281.81
2023-01-15T10:54:28.147Z,94268.41
2023-01-15T10:57:42.094Z,94247.75
2023-01-15T11:00:53.086Z,94232.78
2023-01-15T11:03:58.397Z,94233.94
2023-01-15T11:07:01.210Z,94227.81
2023-01-15T11:10:07.812Z,94217.84
2023-01-15T11:13:20.508Z,94226.66
2023-01-15T11:16:29.127Z,94217.44
2023-01-15T11:19:35.713Z,94225.88
2023-01-15T11:22:39.067Z,94209.78
2023-01-15T11:25:49.195Z,94211.31
2023-01-15T11:28:55.957Z,94219.75
2023-01-15T11:31:57.784Z,94220.13
2023-01-15T11:35:01.311Z,94229.31
2023-01-15T11:38:06.272Z,94219.00
2023-01-15T11:41:21.692Z,94225.09
2023-01-15T11:44:25.353Z,94218.63
2023-01-15T11:47:28.288Z,94226.25
2023-01-15T11:50:30.540Z,94213.63
2023-01-15T11:53:37.464Z,94223.97
2023-01-15T11:56:45.136Z,94224.75
2023-01-15T11:59:52.861Z,94246.56
2023-01-15T12:03:00.980Z,94264.19
2023-01-15T12:06:06.467Z,94284.13
2023-01-15T12:09:23.787Z,94286.22
2023-01-15T12:12:40.390Z,94292.00
2023-01-15T12:15:49.565Z,94323.78
2023-01-15T12:18:58.722Z,94323.38
2023-01-15T12:22:17.847Z,94329.59
2023-01-15T12:25:35.207Z,94329.38
2023-01-15T12:28:45.613Z,94341.81
2023-01-15T12:32:00.019Z,94350.34
2023-01-15T12:35:06.526Z,94358.88
2023-01-15T12:38:16.381Z,94383.94
2023-01-15T12:41:24.443Z,94392.06
2023-01-15T12:44:34.244Z,94421.00
2023-01-15T12:47:44.173Z,94444.06
2023-01-15T12:50:49.764Z,94453.63
2023-01-15T12:53:58.429Z,94481.59
2023-01-15T12:57:02.872Z,94473.44
2023-01-15T13:00:15.252Z,94492.53
2023-01-15T13:03:28.659Z,94513.53
2023-01-15T13:06:32.876Z,94518.41
2023-01-15T13:09:41.320Z,94539.03
2023-01-15T13:12:45.651Z,94540.53
2023-01-15T13:15:59.707Z,94562.22
2023-01-15T13:19:20.680Z,94583.66
2023-01-15T13:22:26.262Z,94596.13
2023-01-15T13:25:51.802Z,94595.97
2023-01-15T13:29:12.526Z,94618.69
2023-01-15T13:32:16.189Z,94621.31
2023-01-15T13:35:32.867Z,94618.88
2023-01-15T13:38:40.755Z,94649.31
2023-01-15T13:41:43.046Z,94645.44
2023-01-15T13:44:49.770Z,94640.75
2023-01-15T13:47:56.448Z,94646.59
2023-01-15T13:51:04.788Z,94655.72
2023-01-15T13:54:14.753Z,94655.75
2023-01-15T13:57:24.825Z,94663.06
2023-01-15T14:00:31.242Z,94670.44
2023-01-15T14:03:35.388Z,94671.91
2023-01-15T14:06:45.006Z,94701.94
2023-01-15T14:09:48.560Z,94693.81
2023-01-15T14:12:59.496Z,94704.41
2023-01-15T14:16:15.288Z,94745.09
2023-01-15T14:19:33.339Z,94724.28
2023-01-15T14:22:58.026Z,94739.13
2023-01-15T14:26:12.406Z,94747.09
2023-01-15T14:29:44.616Z,94747.00
2023-01-15T14:33:00.585Z,94749.25
2023-01-15T14:36:11.248Z,94752.72
2023-01-15T14:39:36.464Z,94761.63
2023-01-15T14:42:43.628Z,94761.63
2023-01-15T14:45:48.169Z,94768.22
2023-01-15T14:48:50.318Z,94775.47
2023-01-15T14:51:54.825Z,94781.84
2023-01-15T14:55:00.988Z,94783.63
2023-01-15T14:58:06.430Z,94789.75
2023-01-15T15:01:17.775Z,94793.97
2023-01-15T15:04:33.015Z,94794.38
2023-01-15T15:07:41.788Z,94792.88
2023-01-15T15:10:52.456Z,94793.31
2023-01-15T15:14:00.393Z,94802.81
2023-01-15T15:17:06.774Z,94804.59
2023-01-15T15:20:31.073Z,94801.22
2023-01-15T15:23:39.854Z,94806.91
2023-01-15T15:26:45.194Z,94812.19
2023-01-15T15:29:49.638Z,94811.03
2023-01-15T15:32:52.040Z,94814.41
2023-01-15T15:35:56.560Z,94822.41
2023-01-15T15:39:00.222Z,94820.94
2023-01-15T15:42:12.611Z,94826.69
2023-01-15T15:45:20.050Z,94826.78
2023-01-15T15:48:32.330Z,94833.19
2023-01-15T15:51:37.400Z,94841.59
2023-01-15T15:54:39.853Z,94847.53
2023-01-15T15:57:48.265Z,94859.72
2023-01-15T16:00:53.290Z,94854.47
2023-01-15T16:03:55.833Z,94857.13
2023-01-15T16:06:57.947Z,94861.16
2023-01-15T16:10:03.729Z,94858.06
2023-01-15T16:13:14.730Z,94859.31
2023-01-15T16:16:20.106Z,94860.09
2023-01-15T16:19:24.735Z,94870.88
2023-01-15T16:22:28.056Z,94886.47
2023-01-15T16:25:34.978Z,94883.53
2023-01-15T16:28:41.032Z,94877.16
2023-01-15T16:31:44.026Z,94887.47
2023-01-15T16:34:46.764Z,94880.25
2023-01-15T16:37:51.720Z,94884.81
2023-01-15T16:40:56.592Z,94872.53
2023-01-15T16:44:02.990Z,94875.63
2023-01-15T16:47:07.252Z,94865.53
2023-01-15T16:50:29.243Z,94871.34
2023-01-15T16:53:40.536Z,94881.56
2023-01-15T16:56:54.323Z,94880.13
2023-01-15T17:00:02.962Z,94880.56
2023-01-15T17:03:14.883Z,94899.34
2023-01-15T17:06:23.000Z,94900.25
2023-01-15T17:09:26.953Z,94899.19
2023-01-15T17:12:32.447Z,94897.78
2023-01-15T17:15:42.569Z,94900.19
2023-01-15T17:18:46.685Z,94898.69
2023-01-15T17:21:49.379Z,94895.72
2023-01-15T17:24:54.236Z,94893.84
2023-01-15T17:27:58.187Z,94906.41
2023-01-15T17:31:05.332Z,94914.88
2023-01-15T17:34:10.691Z,94911.00
2023-01-15T17:37:12.999Z,94902.06
2023-01-15T17:40:15.898Z,94916.28
2023-01-15T17:43:21.097Z,94909.47
2023-01-15T17:46:25.762Z,94919.31
2023-01-15T17:49:31.819Z,94921.22
2023-01-15T17:52:35.128Z,94913.06
2023-01-15T17:55:37.646Z,94915.72
2023-01-15T17:58:40.040Z,94920.44
2023-01-15T18:01:48.455Z,94919.66
2023-01-15T18:04:58.231Z,94928.72
2023-01-15T18:08:05.473Z,94912.34
2023-01-15T18:11:09.701Z,94924.72
2023-01-15T18:14:13.466Z,94925.69
2023-01-15T18:17:19.175Z,94921.97
2023-01-15T18:20:22.627Z,94922.72
2023-01-15T18:23:25.958Z,94930.78
2023-01-15T18:26:29.176Z,94932.41
2023-01-15T18:29:32.507Z,94935.81
2023-01-15T18:32:37.482Z,94939.66
2023-01-15T18:35:40.480Z,94949.41
2023-01-15T18:38:44.496Z,94952.78
2023-01-15T18:41:47.487Z,94947.09
2023-01-15T18:44:51.190Z,94949.25
2023-01-15T18:47:55.765Z,94940.56
2023-01-15T18:50:59.286Z,94947.00
2023-01-15T18:54:04.407Z,94948.88
2023-01-15T18:57:08.230Z,94960.00
2023-01-15T19:00:14.797Z,94960.06
2023-01-15T19:03:19.169Z,94953.38
2023-01-15T19:06:22.958Z,94953.78
2023-01-15T19:09:26.932Z,94954.22
2023-01-15T19:12:35.127Z,94949.59
2023-01-15T19:15:40.000Z,94953.53
2023-01-15T19:18:46.993Z,94958.72
2023-01-15T19:21:49.962Z,94951.91
2023-01-15T19:24:54.272Z,94951.03
2023-01-15T19:27:59.083Z,94953.91
2023-01-15T19:31:02.039Z,94950.53
2023-01-15T19:34:31.550Z,94952.50
2023-01-15T19:37:29.741Z,94949.84
2023-01-15T19:40:32.911Z,94943.97
2023-01-15T19:43:37.758Z,94946.50
2023-01-15T19:46:41.345Z,94952.34
2023-01-15T19:49:49.048Z,94934.34
2023-01-15T19:52:53.690Z,94941.84
2023-01-15T19:55:56.829Z,94949.31
2023-01-15T19:58:59.889Z,94942.53
2023-01-15T20:02:03.159Z,94931.09
2023-01-15T20:05:11.307Z,94935.81
2023-01-15T20:08:16.215Z,94932.41
2023-01-15T20:11:19.163Z,94927.81
2023-01-15T20:14:25.195Z,94929.22
2023-01-15T20:17:30.520Z,94914.84
2023-01-15T20:20:38.629Z,94918.34
2023-01-15T20:23:43.541Z,94909.06
2023-01-15T20:26:46.950Z,94905.53
2023-01-15T20:29:50.135Z,94897.63
2023-01-15T20:32:55.328Z,94898.38
2023-01-15T20:36:02.906Z,94900.97
2023-01-15T20:39:05.916Z,94889.88
2023-01-15T20:42:10.985Z,94881.63
2023-01-15T20:45:16.848Z,94878.69
2023-01-15T20:48:21.445Z,94878.50
2023-01-15T20:51:27.305Z,94869.81
2023-01-15T20:54:31.779Z,94873.94
2023-01-15T20:57:34.694Z,94869.47
2023-01-15T21:00:37.394Z,94861.63
2023-01-15T21:03:41.567Z,94853.31
2023-01-15T21:06:45.454Z,94844.88
2023-01-15T21:09:54.339Z,94844.59
2023-01-15T21:12:57.641Z,94838.41
2023-01-15T21:16:02.983Z,94836.50
2023-01-15T21:19:07.704Z,94838.56
2023-01-15T21:22:11.052Z,94831.19
2023-01-15T21:25:13.493Z,94828.16
2023-01-15T21:28:16.223Z,94828.88
2023-01-15T21:31:18.561Z,94823.78
2023-01-15T21:34:20.999Z,94819.94
2023-01-15T21:37:27.487Z,94809.06
2023-01-15T21:40:29.710Z,94801.91
2023-01-15T21:43:31.536Z,94793.91
2023-01-15T21:46:33.526Z,94799.69
2023-01-15T21:49:35.459Z,94793.09
2023-01-15T21:52:41.173Z,94794.91
2023-01-15T21:55:49.778Z,94790.56
2023-01-15T21:58:51.570Z,94798.56
2023-01-15T22:01:54.954Z,94797.63
2023-01-15T22:04:59.499Z,94783.53
2023-01-15T22:08:07.969Z,94779.38
2023-01-15T22:11:11.116Z,94777.06
2023-01-15T22:14:14.750Z,94765.69
2023-01-15T22:17:16.521Z,94762.69
2023-01-15T22:20:18.714Z,94759.81
2023-01-15T22:23:22.094Z,94759.47
2023-01-15T22:26:24.318Z,94753.09
2023-01-15T22:29:30.160Z,94742.25
2023-01-15T22:32:31.982Z,94744.06
2023-01-15T22:35:34.037Z,94736.41
2023-01-15T22:38:40.332Z,94731.44
2023-01-15T22:41:42.594Z,94720.41
2023-01-15T22:44:44.479Z,94723.78
2023-01-15T22:47:46.267Z,94721.94
2023-01-15T22:50:48.105Z,94727.44
2023-01-15T22:53:54.215Z,94705.91
2023-01-15T22:57:00.627Z,94712.03
2023-01-15T23:00:03.612Z,94702.31
2023-01-15T23:03:05.738Z,94692.81
2023-01-15T23:06:12.287Z,94690.22
2023-01-15T23:09:15.972Z,94683.69
2023-01-15T23:12:20.127Z,94679.81
2023-01-15T23:15:24.659Z,94677.16
2023-01-15T23:18:30.760Z,94661.00
2023-01-15T23:21:33.490Z,94662.91
2023-01-15T23:24:37.395Z,94670.91
2023-01-15T23:27:41.473Z,94668.25
2023-01-15T23:30:43.255Z,94666.28
2023-01-15T23:33:47.659Z,94661.78
2023-01-15T23:36:50.241Z,94658.00
2023-01-15T23:39:53.882Z,94651.88
2023-01-15T23:42:57.198Z,94638.97
2023-01-15T23:46:03.265Z,94637.44
2023-01-15T23:49:10.972Z,94628.38
2023-01-15T23:52:12.826Z,94620.81
2023-01-15T23:55:18.886Z,94615.09
2023-01-15T23:58:21.040Z,94607.47
